Time;durP1;ratioP1;P1;durP2;ratioP2;P2;SDS_P1;SDS_P2;PMS_P1;PMS_P2;Temp;Humidity;BMP_temperature;BMP_pressure;BME280_temperature;BME280_humidity;BME280_pressure;Samples;Min_cycle;Max_cycle;Signal;HPM_P1;HPM_P2
2023/09/10 00:01:24;;;;;;;5.97;5.57;;;26.80;65.20;;;;;;5090527;28;20451;-71
2023/09/10 00:04:11;;;;;;;8.10;6.27;;;26.80;65.20;;;;;;5076978;28;20583;-71
2023/09/10 00:07:00;;;;;;;5.47;5.00;;;26.80;65.10;;;;;;5085010;28;20467;-71
2023/09/10 00:09:47;;;;;;;5.47;5.07;;;26.80;65.20;;;;;;5083415;28;21011;-71
2023/09/10 00:12:33;;;;;;;5.47;5.07;;;26.80;65.20;;;;;;5104615;28;20462;-71
2023/09/10 00:15:20;;;;;;;5.73;5.23;;;26.80;65.20;;;;;;5080203;28;20474;-71
2023/09/10 00:18:07;;;;;;;5.80;5.40;;;26.80;65.20;;;;;;5090405;28;20808;-71
2023/09/10 00:20:54;;;;;;;5.40;4.90;;;26.80;65.10;;;;;;5085281;28;20452;-71
2023/09/10 00:23:43;;;;;;;6.27;5.67;;;26.80;65.10;;;;;;5095665;28;20424;-71
2023/09/10 00:26:30;;;;;;;6.90;5.60;;;26.80;65.10;;;;;;5103328;28;20585;-71
2023/09/10 00:29:17;;;;;;;6.83;6.23;;;26.80;65.00;;;;;;5082232;28;20471;-71
2023/09/10 00:32:04;;;;;;;6.47;5.97;;;26.80;65.00;;;;;;5106614;28;20448;-71
2023/09/10 00:34:52;;;;;;;5.90;5.40;;;26.80;65.00;;;;;;5096905;28;20844;-72
2023/09/10 00:37:39;;;;;;;5.53;5.03;;;26.80;64.90;;;;;;5105486;28;20573;-71
2023/09/10 00:40:28;;;;;;;5.83;5.33;;;26.80;64.90;;;;;;5096365;28;20475;-71
2023/09/10 00:43:14;;;;;;;5.80;5.30;;;26.80;64.90;;;;;;5085884;28;20440;-72
2023/09/10 00:46:03;;;;;;;5.80;5.30;;;26.80;64.90;;;;;;5081872;28;20448;-71
2023/09/10 00:48:50;;;;;;;6.77;5.27;;;26.70;64.90;;;;;;5080233;28;20471;-71
2023/09/10 00:51:36;;;;;;;5.50;5.10;;;26.70;64.70;;;;;;5104567;28;21855;-71
2023/09/10 00:54:25;;;;;;;5.77;5.30;;;26.70;64.70;;;;;;5086722;28;20478;-72
2023/09/10 00:57:14;;;;;;;6.80;6.20;;;26.70;64.70;;;;;;5086446;28;20465;-71
2023/09/10 01:00:03;;;;;;;5.80;5.30;;;26.70;64.70;;;;;;5089421;28;20463;-71
2023/09/10 01:02:52;;;;;;;5.13;4.77;;;26.70;64.70;;;;;;5118400;28;20513;-72
2023/09/10 01:05:39;;;;;;;5.53;5.13;;;26.70;64.70;;;;;;5088818;28;20498;-71
2023/09/10 01:08:26;;;;;;;5.60;5.10;;;26.70;64.60;;;;;;5088826;28;20443;-71
2023/09/10 01:11:24;;;;;;;6.00;5.60;;;26.70;64.70;;;;;;5090280;28;20439;-71
2023/09/10 01:14:18;;;;;;;5.60;5.10;;;26.70;64.70;;;;;;5081430;28;20479;-71
2023/09/10 01:17:16;;;;;;;5.60;5.10;;;26.70;64.80;;;;;;5086166;28;20443;-71
2023/09/10 01:20:29;;;;;;;6.40;5.40;;;26.70;64.70;;;;;;5079334;28;20862;-71
2023/09/10 01:23:21;;;;;;;5.87;5.47;;;26.70;64.70;;;;;;5090360;28;21033;-71
2023/09/10 01:26:10;;;;;;;5.90;5.40;;;26.70;64.80;;;;;;5088828;28;20512;-71
2023/09/10 01:28:57;;;;;;;5.53;5.13;;;26.70;64.70;;;;;;5077333;28;20819;-71
2023/09/10 01:31:49;;;;;;;8.10;5.40;;;26.70;64.70;;;;;;5082444;28;20448;-72
2023/09/10 01:34:42;;;;;;;6.00;5.40;;;26.70;64.70;;;;;;5090879;28;20512;-71
2023/09/10 01:37:35;;;;;;;7.17;5.30;;;26.70;64.80;;;;;;5093046;28;20443;-71
2023/09/10 01:40:27;;;;;;;6.30;5.63;;;26.70;64.70;;;;;;5092646;28;20617;-71
2023/09/10 01:43:16;;;;;;;5.37;4.90;;;26.70;66.00;;;;;;5086741;28;20650;-71
2023/09/10 01:46:04;;;;;;;4.70;4.33;;;26.70;64.70;;;;;;5105843;28;20658;-71
2023/09/10 01:48:51;;;;;;;5.93;5.43;;;26.70;64.80;;;;;;5097865;28;20581;-71
2023/09/10 01:51:39;;;;;;;4.83;4.43;;;26.60;64.70;;;;;;5087613;28;20442;-71
2023/09/10 01:54:25;;;;;;;4.90;4.50;;;26.60;64.70;;;;;;5089484;28;20536;-71
2023/09/10 01:57:12;;;;;;;5.60;5.20;;;26.60;64.70;;;;;;5088748;28;20489;-71
2023/09/10 02:00:01;;;;;;;5.80;5.40;;;26.60;64.70;;;;;;5087086;28;20572;-71
2023/09/10 02:02:57;;;;;;;6.13;5.60;;;26.60;64.70;;;;;;5109925;28;20795;-72
2023/09/10 02:05:45;;;;;;;7.60;5.77;;;26.60;64.70;;;;;;5092149;28;20957;-71
2023/09/10 02:08:31;;;;;;;5.87;5.40;;;26.60;64.80;;;;;;5102221;28;20528;-71
2023/09/10 02:11:19;;;;;;;5.67;5.17;;;26.60;64.70;;;;;;5095147;28;20853;-71
2023/09/10 02:14:06;;;;;;;5.90;5.30;;;26.60;64.70;;;;;;5089971;28;20487;-71
2023/09/10 02:16:55;;;;;;;5.70;5.20;;;26.60;64.70;;;;;;5104040;28;20902;-71
2023/09/10 02:19:42;;;;;;;6.40;5.07;;;26.60;64.70;;;;;;5087856;28;20475;-71
2023/09/10 02:22:29;;;;;;;6.13;5.40;;;26.60;64.70;;;;;;5093919;28;20431;-71
2023/09/10 02:25:17;;;;;;;5.07;4.70;;;26.60;64.70;;;;;;5093652;28;20524;-71
2023/09/10 02:28:04;;;;;;;5.10;4.70;;;26.60;64.70;;;;;;5122548;27;20479;-71
2023/09/10 02:30:52;;;;;;;5.17;4.77;;;26.60;66.00;;;;;;5094919;28;20545;-71
2023/09/10 02:33:40;;;;;;;5.87;5.47;;;26.60;64.70;;;;;;5092415;28;20427;-71
2023/09/10 02:36:29;;;;;;;5.83;5.33;;;26.50;64.70;;;;;;5093326;28;20459;-71
2023/09/10 02:39:16;;;;;;;5.03;4.73;;;26.60;64.70;;;;;;5087686;28;20464;-71
2023/09/10 02:42:03;;;;;;;5.73;5.30;;;26.50;64.70;;;;;;5109735;28;20438;-71
2023/09/10 02:44:50;;;;;;;5.70;5.30;;;26.50;64.70;;;;;;5081864;28;20479;-71
2023/09/10 02:47:37;;;;;;;4.83;4.53;;;26.50;64.80;;;;;;5094944;28;21104;-71
2023/09/10 02:50:26;;;;;;;4.50;4.20;;;26.50;64.80;;;;;;5093888;28;20556;-71
2023/09/10 02:53:12;;;;;;;6.70;5.07;;;26.60;64.70;;;;;;5091662;28;20434;-71
2023/09/10 02:56:00;;;;;;;4.77;4.47;;;26.50;64.80;;;;;;5094346;28;20509;-71
2023/09/10 02:58:48;;;;;;;5.50;5.10;;;26.50;64.90;;;;;;5086313;28;20452;-71
2023/09/10 03:01:36;;;;;;;5.43;4.97;;;26.50;64.90;;;;;;5094629;28;20447;-71
2023/09/10 03:04:23;;;;;;;5.60;5.20;;;26.50;64.70;;;;;;5088158;28;20479;-72
2023/09/10 03:07:11;;;;;;;5.40;4.97;;;26.50;64.70;;;;;;5086976;28;20485;-71
2023/09/10 03:09:58;;;;;;;5.90;5.47;;;26.50;64.80;;;;;;5091487;28;21053;-71
2023/09/10 03:12:45;;;;;;;6.43;5.93;;;26.50;64.80;;;;;;5091334;28;20459;-72
2023/09/10 03:15:32;;;;;;;6.00;5.47;;;26.50;64.80;;;;;;5091120;28;20475;-71
2023/09/10 03:18:20;;;;;;;5.73;5.23;;;26.50;64.70;;;;;;5091591;28;20521;-71
2023/09/10 03:21:07;;;;;;;5.30;4.80;;;26.50;64.70;;;;;;5087621;28;20443;-71
2023/09/10 03:23:56;;;;;;;5.60;5.20;;;26.50;64.70;;;;;;5085272;28;20913;-71
2023/09/10 03:26:45;;;;;;;5.10;4.70;;;26.40;64.70;;;;;;5089591;28;20432;-71
2023/09/10 03:29:34;;;;;;;6.50;5.40;;;26.40;64.80;;;;;;5082276;28;20464;-71
2023/09/10 03:32:21;;;;;;;5.73;5.17;;;26.40;64.80;;;;;;5091216;28;20431;-71
2023/09/10 03:35:12;;;;;;;5.17;4.67;;;26.40;64.70;;;;;;5086695;28;20472;-71
2023/09/10 03:37:59;;;;;;;5.70;5.30;;;26.40;64.70;;;;;;5103347;28;20435;-71
2023/09/10 03:40:48;;;;;;;5.57;5.17;;;26.40;64.70;;;;;;5091580;28;20553;-71
2023/09/10 03:43:35;;;;;;;5.13;4.73;;;26.40;64.80;;;;;;5083786;28;20534;-72
2023/09/10 03:46:23;;;;;;;5.37;4.97;;;26.40;64.80;;;;;;5091131;28;20446;-71
2023/09/10 03:49:10;;;;;;;4.57;4.20;;;26.40;64.70;;;;;;5084189;28;20602;-71
2023/09/10 03:51:58;;;;;;;5.70;5.30;;;26.40;64.70;;;;;;5113030;27;20489;-71
2023/09/10 03:54:45;;;;;;;5.17;4.67;;;26.40;64.80;;;;;;5081592;28;20578;-71
2023/09/10 03:57:33;;;;;;;5.93;5.33;;;26.40;64.80;;;;;;5090491;28;20471;-71
2023/09/10 04:00:21;;;;;;;5.93;5.43;;;26.40;64.80;;;;;;5082369;28;20479;-71
2023/09/10 04:03:08;;;;;;;4.93;4.60;;;26.40;64.70;;;;;;5090449;28;20443;-71
2023/09/10 04:05:55;;;;;;;5.00;4.57;;;26.40;64.80;;;;;;5089210;28;20451;-71
2023/09/10 04:08:42;;;;;;;4.93;4.53;;;26.40;64.70;;;;;;5106019;28;20938;-71
2023/09/10 04:11:29;;;;;;;5.53;5.07;;;26.40;64.80;;;;;;5088274;28;20443;-71
2023/09/10 04:14:17;;;;;;;5.50;5.10;;;26.40;64.80;;;;;;5086902;28;20467;-71
2023/09/10 04:17:04;;;;;;;5.33;4.93;;;26.40;64.80;;;;;;5091034;28;20774;-72
2023/09/10 04:19:52;;;;;;;5.43;5.03;;;26.40;64.90;;;;;;5088912;28;20471;-71
2023/09/10 04:22:38;;;;;;;5.60;5.10;;;26.30;64.80;;;;;;5120091;27;20444;-71
2023/09/10 04:25:25;;;;;;;6.63;6.00;;;26.30;64.70;;;;;;5105803;28;20470;-71
2023/09/10 04:28:13;;;;;;;5.60;5.20;;;26.30;64.70;;;;;;5101007;28;21002;-71
2023/09/10 04:31:01;;;;;;;5.40;5.00;;;26.40;64.80;;;;;;5099796;28;20622;-71
2023/09/10 04:33:49;;;;;;;5.00;4.60;;;26.30;65.90;;;;;;5087981;28;20452;-71
2023/09/10 04:36:36;;;;;;;5.37;5.07;;;26.30;64.70;;;;;;5089403;28;20978;-72
2023/09/10 04:39:23;;;;;;;6.03;5.53;;;26.30;64.70;;;;;;5086678;28;20458;-72
2023/09/10 04:42:10;;;;;;;4.90;4.53;;;26.30;64.70;;;;;;5106495;28;20812;-71
2023/09/10 04:44:57;;;;;;;5.70;5.10;;;26.30;64.70;;;;;;5085410;28;20471;-71
2023/09/10 04:47:45;;;;;;;5.20;4.80;;;26.30;64.70;;;;;;5090463;28;21002;-72
2023/09/10 04:50:33;;;;;;;5.57;5.07;;;26.30;64.80;;;;;;5084283;28;20589;-71
2023/09/10 04:53:20;;;;;;;5.60;5.20;;;26.30;64.70;;;;;;5090558;28;20545;-71
2023/09/10 04:56:07;;;;;;;4.50;4.10;;;26.30;64.70;;;;;;5088445;28;20860;-71
2023/09/10 04:58:55;;;;;;;5.60;4.37;;;26.30;64.70;;;;;;5084641;28;20997;-71
2023/09/10 05:01:42;;;;;;;4.93;4.53;;;26.20;64.70;;;;;;5104791;28;20874;-71
2023/09/10 05:04:30;;;;;;;5.27;4.87;;;26.30;64.70;;;;;;5087249;28;20609;-72
2023/09/10 05:07:17;;;;;;;4.97;4.47;;;26.20;64.70;;;;;;5089042;28;20440;-71
2023/09/10 05:10:05;;;;;;;5.13;4.73;;;26.20;64.70;;;;;;5093945;28;20459;-71
2023/09/10 05:12:52;;;;;;;4.83;4.43;;;26.20;64.70;;;;;;5092829;28;20604;-71
2023/09/10 05:15:39;;;;;;;4.93;4.53;;;26.20;64.70;;;;;;5093514;28;20533;-71
2023/09/10 05:18:26;;;;;;;4.40;4.00;;;26.20;64.70;;;;;;5106821;28;20431;-72
2023/09/10 05:21:15;;;;;;;5.40;4.90;;;26.20;64.70;;;;;;5119394;27;20524;-71
2023/09/10 05:24:02;;;;;;;4.77;4.37;;;26.20;64.90;;;;;;5093167;28;20427;-71
2023/09/10 05:26:50;;;;;;;5.30;4.90;;;26.20;64.70;;;;;;5085213;28;20954;-71
2023/09/10 05:29:37;;;;;;;6.13;5.13;;;26.20;64.80;;;;;;5090974;28;20467;-71
2023/09/10 05:32:25;;;;;;;3.90;3.60;;;26.20;64.90;;;;;;5123087;27;20540;-73
2023/09/10 05:35:12;;;;;;;4.60;4.20;;;26.20;64.80;;;;;;5090941;28;20483;-71
2023/09/10 05:38:00;;;;;;;5.70;5.20;;;26.20;64.90;;;;;;5093035;28;20443;-71
2023/09/10 05:40:47;;;;;;;4.73;4.40;;;26.10;64.80;;;;;;5084952;28;21126;-71
2023/09/10 05:43:35;;;;;;;4.40;4.10;;;26.20;64.90;;;;;;5091458;28;20498;-71
2023/09/10 05:46:22;;;;;;;7.47;5.03;;;26.10;64.80;;;;;;5090363;28;20781;-71
2023/09/10 05:49:09;;;;;;;5.47;4.80;;;26.20;65.00;;;;;;5112169;27;20521;-72
2023/09/10 05:51:56;;;;;;;5.30;4.80;;;26.10;64.90;;;;;;5086189;28;20440;-71
2023/09/10 05:54:44;;;;;;;5.03;4.63;;;26.10;64.90;;;;;;5091476;28;20457;-71
2023/09/10 05:57:31;;;;;;;5.40;5.00;;;26.10;64.80;;;;;;5087460;28;20538;-71
2023/09/10 06:00:18;;;;;;;5.87;5.03;;;26.10;64.80;;;;;;5093125;28;21051;-71
2023/09/10 06:03:07;;;;;;;5.50;5.10;;;26.10;64.80;;;;;;5093119;28;20517;-71
2023/09/10 06:05:56;;;;;;;4.80;4.50;;;26.10;65.00;;;;;;5116487;27;20537;-71
2023/09/10 06:08:47;;;;;;;4.67;4.30;;;26.10;65.00;;;;;;5092884;28;20463;-71
2023/09/10 06:11:35;;;;;;;5.87;5.37;;;26.10;65.10;;;;;;5091704;28;20423;-71
2023/09/10 06:14:22;;;;;;;5.23;4.73;;;26.00;65.10;;;;;;5109737;27;20593;-71
2023/09/10 06:17:10;;;;;;;5.00;4.60;;;26.00;65.00;;;;;;5092111;28;20444;-71
2023/09/10 06:19:57;;;;;;;4.93;4.53;;;26.00;65.20;;;;;;5095889;28;20470;-71
2023/09/10 06:22:46;;;;;;;4.80;4.40;;;26.00;65.20;;;;;;5107615;28;20460;-71
2023/09/10 06:25:34;;;;;;;6.10;5.60;;;26.10;65.40;;;;;;5091374;28;20548;-71
2023/09/10 06:28:24;;;;;;;5.30;4.80;;;26.00;65.30;;;;;;5115651;27;20467;-72
2023/09/10 06:31:11;;;;;;;5.27;4.87;;;26.00;65.40;;;;;;5118961;27;20439;-71
2023/09/10 06:33:58;;;;;;;5.43;5.03;;;26.00;65.50;;;;;;5085893;28;20480;-71
2023/09/10 06:36:45;;;;;;;4.97;4.57;;;26.00;65.50;;;;;;5092059;27;20446;-72
2023/09/10 06:39:38;;;;;;;4.83;4.43;;;26.00;65.50;;;;;;5092325;28;20467;-71
2023/09/10 06:42:25;;;;;;;5.33;4.83;;;26.00;65.60;;;;;;5089043;28;20582;-71
2023/09/10 06:45:32;;;;;;;5.80;5.30;;;26.00;65.50;;;;;;5082049;28;21044;-71
2023/09/10 06:48:19;;;;;;;5.17;4.77;;;26.00;65.50;;;;;;5103425;28;21203;-72
2023/09/10 06:51:06;;;;;;;4.93;4.43;;;26.00;65.60;;;;;;5091546;28;20444;-72
2023/09/10 06:53:53;;;;;;;5.30;4.80;;;26.00;65.70;;;;;;5087229;28;20447;-71
2023/09/10 06:56:40;;;;;;;4.77;4.47;;;26.00;65.80;;;;;;5090589;28;20521;-71
2023/09/10 06:59:27;;;;;;;4.43;3.83;;;26.00;65.70;;;;;;5103361;28;20460;-71
2023/09/10 07:02:16;;;;;;;4.97;4.57;;;26.00;65.90;;;;;;5090716;28;20452;-71
2023/09/10 07:05:03;;;;;;;4.97;4.47;;;26.00;65.90;;;;;;5080453;28;20856;-71
2023/09/10 07:07:53;;;;;;;4.97;4.57;;;26.00;65.90;;;;;;5092504;28;21275;-71
2023/09/10 07:10:40;;;;;;;4.80;4.40;;;26.00;65.90;;;;;;5091954;28;20466;-71
2023/09/10 07:13:29;;;;;;;4.80;4.50;;;26.00;65.90;;;;;;5089452;27;20545;-71
2023/09/10 07:16:15;;;;;;;4.43;4.13;;;26.00;66.00;;;;;;5087485;28;20443;-72
2023/09/10 07:19:04;;;;;;;4.40;4.10;;;26.00;66.10;;;;;;5086701;28;20948;-71
2023/09/10 07:21:51;;;;;;;4.63;4.30;;;26.00;66.10;;;;;;5082520;28;20521;-72
2023/09/10 07:24:37;;;;;;;4.43;4.13;;;26.00;66.00;;;;;;5088694;28;20841;-72
2023/09/10 07:27:24;;;;;;;5.00;4.60;;;26.00;66.00;;;;;;5091197;28;20448;-72
2023/09/10 07:30:12;;;;;;;4.50;4.17;;;26.00;66.10;;;;;;5106449;28;20471;-72
2023/09/10 07:32:59;;;;;;;4.20;3.90;;;26.00;66.10;;;;;;5092095;28;20517;-72
2023/09/10 07:35:48;;;;;;;4.20;3.80;;;26.00;66.10;;;;;;5079617;28;20570;-72
2023/09/10 07:38:34;;;;;;;4.13;3.83;;;26.00;66.20;;;;;;5090903;28;20586;-72
2023/09/10 07:41:21;;;;;;;5.20;4.30;;;26.00;66.00;;;;;;5089687;28;20819;-72
2023/09/10 07:44:08;;;;;;;4.60;4.20;;;26.00;66.00;;;;;;5099728;28;20493;-72
2023/09/10 07:46:55;;;;;;;4.43;4.03;;;26.00;66.00;;;;;;5089824;28;20424;-72
2023/09/10 07:49:42;;;;;;;4.77;4.47;;;26.00;66.10;;;;;;5086952;28;20541;-71
2023/09/10 07:52:31;;;;;;;4.27;3.97;;;26.00;66.00;;;;;;5086355;28;20944;-71
2023/09/10 07:55:17;;;;;;;4.40;4.10;;;26.00;66.00;;;;;;5090849;28;20463;-72
2023/09/10 07:58:04;;;;;;;4.77;4.37;;;26.00;66.00;;;;;;5091693;28;20448;-71
2023/09/10 08:00:54;;;;;;;3.90;3.60;;;26.00;66.00;;;;;;5097881;28;20439;-72
2023/09/10 08:03:42;;;;;;;4.67;4.27;;;26.00;66.00;;;;;;5087290;28;20443;-71
2023/09/10 08:06:29;;;;;;;4.10;3.80;;;26.00;66.00;;;;;;5084975;28;20447;-71
2023/09/10 08:09:17;;;;;;;4.63;4.23;;;26.00;66.10;;;;;;5089567;28;20475;-72
2023/09/10 08:12:05;;;;;;;4.70;4.30;;;26.00;66.00;;;;;;5088878;28;20585;-71
2023/09/10 08:14:52;;;;;;;4.13;3.83;;;26.00;66.10;;;;;;5087519;28;20946;-71
2023/09/10 08:17:39;;;;;;;5.17;4.60;;;26.00;66.20;;;;;;5118857;27;20544;-71
2023/09/10 08:20:26;;;;;;;4.60;4.20;;;26.00;66.20;;;;;;5104203;28;20528;-72
2023/09/10 08:23:13;;;;;;;4.53;4.23;;;26.00;66.20;;;;;;5086047;28;20539;-72
2023/09/10 08:26:02;;;;;;;4.97;4.57;;;26.00;66.20;;;;;;5089195;28;20443;-72
2023/09/10 08:28:49;;;;;;;4.43;4.13;;;26.00;66.20;;;;;;5089080;28;20463;-72
2023/09/10 08:31:36;;;;;;;4.60;4.20;;;26.00;66.30;;;;;;5091399;28;20419;-72
2023/09/10 08:34:23;;;;;;;5.00;4.60;;;26.00;66.20;;;;;;5085578;28;20496;-72
2023/09/10 08:37:11;;;;;;;4.03;3.73;;;26.00;66.20;;;;;;5088110;28;20420;-72
2023/09/10 08:39:59;;;;;;;4.40;4.10;;;26.00;66.20;;;;;;5088524;28;20534;-71
2023/09/10 08:42:59;;;;;;;4.57;4.20;;;26.00;66.30;;;;;;5102348;28;20439;-71
2023/09/10 08:45:46;;;;;;;4.43;4.03;;;26.00;66.20;;;;;;5104097;28;20989;-72
2023/09/10 08:48:34;;;;;;;4.17;3.87;;;26.00;66.30;;;;;;5104488;28;20909;-71
2023/09/10 08:51:22;;;;;;;4.37;4.07;;;26.00;66.30;;;;;;5115243;28;20493;-72
2023/09/10 08:54:09;;;;;;;4.23;3.93;;;26.00;66.30;;;;;;5084806;28;20593;-71
2023/09/10 08:56:57;;;;;;;4.40;4.10;;;26.00;66.30;;;;;;5111664;28;20540;-71
2023/09/10 08:59:48;;;;;;;5.10;4.60;;;26.00;66.20;;;;;;5080886;28;20488;-71
2023/09/10 09:02:35;;;;;;;4.70;4.20;;;26.00;66.30;;;;;;5098345;28;20444;-71
2023/09/10 09:05:23;;;;;;;4.80;4.40;;;26.00;66.30;;;;;;5088709;28;20515;-71
2023/09/10 09:08:15;;;;;;;4.17;3.87;;;26.00;66.30;;;;;;5086220;28;20822;-71
2023/09/10 09:11:04;;;;;;;4.57;4.17;;;26.00;66.30;;;;;;5102243;28;20474;-71
2023/09/10 09:13:53;;;;;;;4.33;4.00;;;26.00;66.30;;;;;;5102414;28;20460;-71
2023/09/10 09:16:41;;;;;;;4.20;3.90;;;26.00;66.30;;;;;;5103962;28;20811;-71
2023/09/10 09:19:30;;;;;;;4.33;3.93;;;26.00;66.30;;;;;;5088967;28;20619;-71
2023/09/10 09:22:20;;;;;;;3.87;3.57;;;26.00;66.40;;;;;;5091184;28;20416;-72
2023/09/10 09:25:08;;;;;;;4.30;4.00;;;26.00;66.40;;;;;;5104921;28;20464;-72
2023/09/10 09:27:57;;;;;;;5.00;4.60;;;26.00;66.30;;;;;;5079659;28;20475;-72
2023/09/10 09:30:43;;;;;;;5.00;4.60;;;26.00;66.40;;;;;;5088328;28;20572;-71
2023/09/10 09:33:32;;;;;;;5.23;4.73;;;26.00;66.30;;;;;;5089396;28;20447;-72
2023/09/10 09:36:19;;;;;;;6.90;4.50;;;26.00;66.30;;;;;;5080064;28;20443;-72
2023/09/10 09:39:08;;;;;;;5.37;4.87;;;26.10;65.90;;;;;;5105607;28;20906;-72
2023/09/10 09:41:55;;;;;;;7.00;5.60;;;26.10;65.30;;;;;;5087846;28;20419;-72
2023/09/10 09:44:44;;;;;;;6.20;5.60;;;26.20;64.50;;;;;;5084750;28;20479;-71
2023/09/10 09:47:31;;;;;;;6.47;5.73;;;26.20;64.10;;;;;;5104518;28;20423;-71
2023/09/10 09:50:20;;;;;;;7.73;5.80;;;26.20;64.30;;;;;;5088244;28;20467;-71
2023/09/10 09:53:07;;;;;;;6.43;5.60;;;26.20;64.50;;;;;;5093398;28;20467;-72
2023/09/10 09:55:56;;;;;;;6.30;5.80;;;26.10;64.60;;;;;;5088273;28;20463;-71
2023/09/10 09:58:45;;;;;;;5.90;5.30;;;26.10;64.70;;;;;;5102377;28;20476;-71
2023/09/10 10:01:35;;;;;;;7.67;5.30;;;26.10;64.90;;;;;;5107970;28;20557;-71
2023/09/10 10:04:23;;;;;;;7.27;5.20;;;26.10;65.00;;;;;;5085933;28;20476;-72
2023/09/10 10:07:14;;;;;;;6.43;5.83;;;26.10;65.10;;;;;;5087690;28;20436;-66
2023/09/10 10:10:07;;;;;;;6.30;5.80;;;26.10;65.30;;;;;;5087918;28;20466;-66
2023/09/10 10:12:55;;;;;;;4.83;4.43;;;26.10;65.20;;;;;;5077646;28;20620;-66
2023/09/10 10:15:43;;;;;;;5.93;5.43;;;26.00;65.30;;;;;;5086661;28;20460;-66
2023/09/10 10:18:30;;;;;;;5.33;4.87;;;26.00;65.40;;;;;;5087869;28;20566;-66
2023/09/10 10:21:17;;;;;;;5.50;5.00;;;26.00;65.50;;;;;;5122262;27;20808;-67
2023/09/10 10:24:07;;;;;;;4.80;4.30;;;26.00;65.40;;;;;;5092756;28;20601;-66
2023/09/10 10:26:55;;;;;;;5.30;4.90;;;26.10;65.50;;;;;;5092233;28;20427;-66
2023/09/10 10:29:42;;;;;;;5.77;5.27;;;26.00;65.60;;;;;;5087422;28;20529;-66
2023/09/10 10:32:35;;;;;;;8.00;5.17;;;26.00;65.70;;;;;;5091765;28;20989;-67
2023/09/10 10:35:24;;;;;;;6.73;4.77;;;26.00;65.70;;;;;;5077932;28;20487;-66
2023/09/10 10:38:14;;;;;;;6.27;5.70;;;26.00;65.70;;;;;;5094663;28;20443;-66
2023/09/10 10:41:08;;;;;;;5.50;5.00;;;26.10;65.80;;;;;;5089158;28;20590;-66
2023/09/10 10:44:02;;;;;;;5.90;5.33;;;26.10;65.80;;;;;;5086238;28;20444;-66
2023/09/10 10:46:58;;;;;;;5.63;5.23;;;26.00;65.70;;;;;;5083690;28;20805;-66
2023/09/10 10:49:53;;;;;;;6.50;5.17;;;26.10;65.90;;;;;;5090143;28;20505;-66
2023/09/10 10:52:47;;;;;;;6.20;4.60;;;26.10;65.90;;;;;;5088914;28;20998;-66
2023/09/10 10:55:35;;;;;;;4.83;4.50;;;26.10;65.90;;;;;;5088020;28;20487;-66
2023/09/10 10:58:24;;;;;;;5.53;5.13;;;26.10;66.00;;;;;;5086398;28;20602;-66
2023/09/10 11:01:12;;;;;;;5.37;4.97;;;26.10;66.00;;;;;;5092110;28;20812;-66
2023/09/10 11:04:17;;;;;;;5.03;4.67;;;26.10;66.00;;;;;;5086859;27;20538;-66
2023/09/10 11:07:17;;;;;;;5.17;4.37;;;26.10;66.00;;;;;;5117732;27;20456;-66
2023/09/10 11:10:38;;;;;;;4.90;4.40;;;26.10;66.00;;;;;;5086608;27;20549;-66
2023/09/10 11:13:26;;;;;;;5.00;4.60;;;26.10;66.20;;;;;;5081350;28;20436;-66
2023/09/10 11:16:18;;;;;;;5.07;4.53;;;26.10;66.10;;;;;;5090525;28;20436;-66
2023/09/10 11:19:05;;;;;;;4.40;4.10;;;26.10;66.10;;;;;;5079640;27;21002;-66
2023/09/10 11:22:03;;;;;;;5.30;4.30;;;26.10;66.20;;;;;;5103098;28;20493;-66
2023/09/10 11:25:01;;;;;;;4.63;4.33;;;26.10;66.20;;;;;;5116659;27;20463;-66
2023/09/10 11:27:53;;;;;;;4.67;4.27;;;26.10;66.20;;;;;;5101136;28;20461;-66
2023/09/10 11:30:42;;;;;;;4.53;4.23;;;26.10;66.30;;;;;;5086986;27;21084;-66
2023/09/10 11:33:30;;;;;;;5.27;4.77;;;26.10;66.20;;;;;;5103110;28;20546;-66
2023/09/10 11:36:18;;;;;;;4.20;3.90;;;26.10;66.20;;;;;;5100496;28;20501;-66
2023/09/10 11:39:08;;;;;;;4.63;4.23;;;26.10;66.30;;;;;;5090473;28;20468;-66
2023/09/10 11:41:56;;;;;;;5.00;4.63;;;26.10;66.30;;;;;;5081602;28;20967;-66
2023/09/10 11:44:43;;;;;;;4.60;4.30;;;26.10;66.30;;;;;;5104638;28;21018;-66
2023/09/10 11:47:35;;;;;;;4.63;4.23;;;26.10;67.70;;;;;;5086334;28;20448;-66
2023/09/10 11:50:23;;;;;;;5.07;4.67;;;26.10;66.30;;;;;;5088877;28;20479;-66
2023/09/10 11:53:11;;;;;;;4.30;3.90;;;26.10;66.40;;;;;;5091745;28;20982;-66
2023/09/10 11:56:01;;;;;;;4.67;4.13;;;26.10;66.40;;;;;;5095453;27;20463;-65
2023/09/10 11:58:49;;;;;;;4.90;4.50;;;26.10;66.40;;;;;;5112509;27;20840;-66
2023/09/10 12:01:36;;;;;;;5.10;4.70;;;26.10;66.50;;;;;;5089044;28;20418;-66
2023/09/10 12:04:34;;;;;;;4.20;3.80;;;26.10;66.50;;;;;;5101377;28;20475;-67
2023/09/10 12:07:21;;;;;;;4.50;4.10;;;26.20;66.50;;;;;;5089990;28;20428;-66
2023/09/10 12:10:08;;;;;;;4.57;4.17;;;26.20;66.50;;;;;;5090110;28;20994;-66
2023/09/10 12:13:01;;;;;;;4.23;3.93;;;26.20;66.50;;;;;;5087289;28;20467;-66
2023/09/10 12:15:48;;;;;;;4.90;4.47;;;26.20;66.50;;;;;;5083287;28;20537;-66
2023/09/10 12:18:35;;;;;;;5.13;4.73;;;26.20;66.50;;;;;;5087275;28;20706;-66
2023/09/10 12:21:24;;;;;;;5.90;4.30;;;26.20;66.50;;;;;;5087341;28;20411;-66
2023/09/10 12:24:12;;;;;;;4.70;4.30;;;26.20;66.50;;;;;;5090508;28;20471;-66
2023/09/10 12:27:00;;;;;;;5.00;4.60;;;26.20;66.50;;;;;;5086264;28;21092;-66
2023/09/10 12:29:46;;;;;;;5.10;4.57;;;26.20;66.50;;;;;;5090101;28;20462;-66
2023/09/10 12:32:33;;;;;;;3.63;3.43;;;26.20;66.50;;;;;;5093729;28;20463;-66
2023/09/10 12:35:22;;;;;;;4.43;4.03;;;26.20;66.50;;;;;;5088712;28;21032;-66
2023/09/10 12:38:15;;;;;;;4.63;4.23;;;26.20;66.50;;;;;;5084321;28;20440;-66
2023/09/10 12:41:02;;;;;;;5.43;4.40;;;26.20;66.50;;;;;;5089068;28;20467;-67
2023/09/10 12:43:49;;;;;;;4.53;4.13;;;26.20;66.50;;;;;;5085812;28;20471;-66
2023/09/10 12:46:37;;;;;;;4.00;3.70;;;26.20;66.40;;;;;;5083978;28;20444;-66
2023/09/10 12:49:24;;;;;;;5.23;4.70;;;26.20;66.50;;;;;;5088056;28;20478;-66
2023/09/10 12:52:11;;;;;;;4.27;3.97;;;26.20;66.50;;;;;;5090603;28;20500;-66
2023/09/10 12:54:59;;;;;;;4.90;4.50;;;26.20;66.50;;;;;;5086929;28;20471;-66
2023/09/10 12:57:53;;;;;;;4.63;4.17;;;26.30;66.50;;;;;;5087306;28;20459;-66
2023/09/10 13:00:40;;;;;;;5.03;4.63;;;26.30;66.40;;;;;;5086496;28;20463;-66
2023/09/10 13:03:29;;;;;;;8.60;6.73;;;26.30;66.30;;;;;;5084136;28;20522;-66
2023/09/10 13:06:16;;;;;;;9.40;6.53;;;26.40;63.60;;;;;;5113921;28;20444;-66
2023/09/10 13:09:04;;;;;;;13.63;6.28;;;26.50;63.00;;;;;;5086508;28;20430;-66
2023/09/10 13:11:53;;;;;;;8.97;6.33;;;26.60;61.70;;;;;;5085467;28;20226;-66
2023/09/10 13:14:40;;;;;;;7.23;5.93;;;26.70;61.70;;;;;;5116936;28;20456;-66
2023/09/10 13:17:27;;;;;;;6.70;6.10;;;26.70;62.00;;;;;;5091150;28;20472;-66
2023/09/10 13:20:15;;;;;;;10.10;7.50;;;26.70;62.20;;;;;;5087596;28;20486;-67
2023/09/10 13:23:02;;;;;;;6.30;5.70;;;26.60;62.30;;;;;;5101065;28;21089;-66
2023/09/10 13:25:49;;;;;;;7.27;6.57;;;26.60;62.70;;;;;;5093124;28;20459;-66
2023/09/10 13:28:37;;;;;;;11.10;6.20;;;26.50;63.10;;;;;;5091052;28;20480;-72
2023/09/10 13:31:24;;;;;;;6.33;5.73;;;26.50;63.40;;;;;;5092902;28;20958;-72
2023/09/10 13:34:11;;;;;;;7.73;6.20;;;26.50;63.60;;;;;;5101898;28;20573;-72
2023/09/10 13:36:58;;;;;;;6.43;5.83;;;26.50;63.90;;;;;;5090634;28;20484;-72
2023/09/10 13:39:45;;;;;;;6.10;5.50;;;26.50;64.10;;;;;;5094053;27;20478;-71
2023/09/10 13:42:33;;;;;;;7.00;6.30;;;26.50;65.60;;;;;;5090418;28;20472;-72
2023/09/10 13:45:21;;;;;;;6.03;5.53;;;26.40;65.40;;;;;;5089987;28;20564;-72
2023/09/10 13:48:08;;;;;;;8.63;5.90;;;26.50;64.40;;;;;;5093709;28;20456;-72
2023/09/10 13:50:56;;;;;;;7.03;5.97;;;26.50;64.60;;;;;;5091484;28;20458;-72
2023/09/10 13:53:44;;;;;;;5.90;5.40;;;26.50;64.70;;;;;;5092366;28;20564;-72
2023/09/10 13:56:32;;;;;;;6.20;5.60;;;26.40;64.50;;;;;;5091093;28;20569;-71
2023/09/10 13:59:19;;;;;;;6.03;5.53;;;26.50;64.80;;;;;;5116912;27;20455;-72
2023/09/10 14:02:08;;;;;;;5.70;5.20;;;26.50;64.70;;;;;;5091940;28;20443;-71
2023/09/10 14:04:55;;;;;;;6.03;5.50;;;26.50;64.80;;;;;;5090496;28;20529;-71
2023/09/10 14:07:42;;;;;;;5.60;5.20;;;26.50;64.80;;;;;;5092758;28;20481;-72
2023/09/10 14:10:29;;;;;;;5.57;5.17;;;26.50;64.90;;;;;;5093047;28;20467;-72
2023/09/10 14:13:15;;;;;;;5.80;5.30;;;26.50;65.00;;;;;;5080006;28;21024;-71
2023/09/10 14:16:02;;;;;;;5.90;5.40;;;26.50;65.10;;;;;;5092467;28;20451;-71
2023/09/10 14:18:50;;;;;;;5.83;5.23;;;26.50;65.20;;;;;;5104815;28;20883;-72
2023/09/10 14:21:38;;;;;;;6.37;5.77;;;26.50;65.20;;;;;;5089783;28;20427;-72
2023/09/10 14:24:28;;;;;;;6.17;5.30;;;26.50;65.20;;;;;;5087054;28;20532;-71
2023/09/10 14:27:15;;;;;;;5.47;5.07;;;26.50;65.20;;;;;;5085664;28;20473;-72
2023/09/10 14:30:02;;;;;;;5.57;5.17;;;26.50;65.30;;;;;;5082897;28;20475;-71
2023/09/10 14:32:50;;;;;;;5.53;4.83;;;26.50;65.40;;;;;;5091572;28;21007;-71
2023/09/10 14:35:38;;;;;;;5.87;5.40;;;26.50;65.40;;;;;;5088897;28;20479;-72